createdAt,value
2019-04-03T12:17:52.847Z,400.00
2019-04-03T12:18:57.456Z,356.00
2019-04-03T12:19:57.191Z,372.00
2019-04-03T12:20:57.190Z,348.00
2019-04-03T12:21:57.209Z,300.00
2019-04-03T12:22:57.468Z,284.00
2019-04-03T12:23:58.234Z,320.00
2019-04-03T12:24:57.499Z,280.00
2019-04-03T12:25:57.142Z,260.00
2019-04-03T12:26:57.142Z,292.00
2019-04-03T12:27:57.121Z,292.00
2019-04-03T12:28:57.492Z,276.00
2019-04-03T12:29:57.102Z,236.00
2019-04-03T12:30:57.134Z,192.00
2019-04-03T12:31:57.072Z,168.00
2019-04-03T12:32:57.043Z,160.00
2019-04-03T12:34:03.387Z,160.00
2019-04-03T12:34:58.968Z,160.00
2019-04-03T12:35:56.972Z,152.00
2019-04-03T12:36:57.030Z,148.00
2019-04-03T12:37:56.942Z,148.00
2019-04-03T12:38:57.295Z,168.00
2019-04-03T12:39:58.222Z,232.00
2019-04-03T12:40:56.882Z,248.00
2019-04-03T12:41:57.277Z,220.00
2019-04-03T12:42:56.834Z,212.00
2019-04-03T12:43:57.043Z,224.00
2019-04-03T12:44:56.784Z,216.00
2019-04-03T12:45:58.192Z,188.00
2019-04-03T12:46:58.093Z,184.00
2019-04-03T12:47:56.722Z,192.00
2019-04-03T12:48:56.704Z,184.00
2019-04-03T12:49:56.712Z,180.00
2019-04-03T12:50:56.952Z,180.00
2019-04-03T12:51:56.785Z,192.00
2019-04-03T12:52:57.122Z,208.00
2019-04-03T12:53:56.592Z,280.00
2019-04-03T12:54:56.624Z,256.00
2019-04-03T12:55:57.877Z,236.00
2019-04-03T12:56:56.524Z,224.00
2019-04-03T12:57:56.506Z,212.00
2019-04-03T12:58:56.506Z,220.00
2019-04-03T12:59:56.712Z,248.00
2019-04-03T13:00:56.435Z,252.00
2019-04-03T13:01:56.425Z,284.00
2019-04-03T13:02:56.662Z,296.00
2019-04-03T13:03:57.321Z,324.00
2019-04-03T13:04:56.405Z,312.00
2019-04-03T13:05:56.346Z,296.00
2019-04-03T13:06:56.706Z,272.00
2019-04-03T13:07:59.147Z,260.00
2019-04-03T13:08:56.298Z,248.00
2019-04-03T13:09:56.297Z,240.00
2019-04-03T13:10:57.085Z,228.00
2019-04-03T13:11:56.265Z,220.00
2019-04-03T13:12:56.742Z,212.00
2019-04-03T13:13:57.286Z,224.00
2019-04-03T13:14:56.177Z,240.00
2019-04-03T13:15:56.226Z,248.00
2019-04-03T13:16:56.236Z,252.00
2019-04-03T13:17:56.602Z,264.00
2019-04-03T13:18:56.309Z,272.00
2019-04-03T13:19:57.251Z,316.00
2019-04-03T13:51:53.932Z,508.00
2019-04-03T13:52:53.344Z,496.00
2019-04-03T14:34:51.254Z,404.00
2019-04-03T14:35:54.313Z,412.00
2019-04-03T14:38:13.319Z,408.00
2019-04-03T14:39:13.866Z,392.00
2019-04-03T14:40:13.633Z,384.00
2019-04-03T14:41:13.243Z,388.00
2019-04-03T14:42:13.100Z,396.00
2019-04-03T14:43:13.082Z,392.00
2019-04-03T14:44:07.576Z,356.00
2019-04-03T14:45:05.699Z,336.00
2019-04-03T14:46:05.524Z,320.00
2019-04-03T14:47:05.733Z,316.00
2019-04-03T14:48:05.521Z,320.00
2019-04-03T14:49:05.483Z,312.00
2019-04-03T14:50:06.469Z,332.00
2019-04-03T14:51:07.179Z,340.00
2019-04-03T16:52:41.164Z,80.00
2019-04-03T16:53:52.902Z,104.00
2019-04-03T16:54:53.109Z,104.00
2019-04-03T16:55:52.854Z,72.00
2019-04-03T16:56:53.112Z,72.00
2019-04-03T16:57:54.312Z,68.00
2019-04-03T16:58:52.822Z,68.00
2019-04-03T16:59:53.050Z,68.00
2019-04-03T17:00:52.788Z,68.00
2019-04-03T17:01:52.782Z,68.00
2019-04-03T17:02:53.954Z,64.00
2019-04-03T17:03:52.751Z,68.00
2019-04-03T17:04:52.963Z,68.00
2019-04-03T17:05:53.159Z,64.00
2019-04-03T17:06:52.732Z,64.00
2019-04-03T17:07:54.334Z,68.00
2019-04-03T17:08:53.067Z,64.00
2019-04-03T17:09:52.695Z,56.00
2019-04-03T17:10:52.681Z,60.00
2019-04-03T17:11:52.687Z,60.00
2019-04-03T17:12:54.761Z,60.00
2019-04-03T17:13:52.900Z,64.00
2019-04-03T17:14:52.915Z,64.00
2019-04-03T17:15:52.677Z,64.00
2019-04-03T17:16:52.783Z,64.00
2019-04-03T17:17:52.612Z,64.00
2019-04-03T17:18:52.607Z,60.00
2019-04-03T17:19:52.602Z,60.00
2019-04-03T17:20:53.217Z,64.00
2019-04-03T17:21:52.708Z,60.00
2019-04-03T17:22:52.565Z,60.00
2019-04-03T17:23:52.543Z,64.00
2019-04-03T17:24:55.742Z,64.00
2019-04-03T17:25:52.523Z,60.00
2019-04-03T17:26:57.368Z,64.00
2019-04-03T17:27:57.481Z,64.00
2019-04-03T17:29:02.511Z,60.00
2019-04-03T17:29:53.484Z,60.00
2019-04-03T17:30:52.490Z,60.00
2019-04-03T17:31:52.891Z,60.00
2019-04-03T17:32:52.834Z,60.00
2019-04-03T17:33:52.441Z,56.00
2019-04-03T17:34:52.435Z,56.00
2019-04-03T17:35:52.405Z,56.00
2019-04-03T17:36:53.926Z,56.00
2019-04-03T17:37:52.385Z,56.00
2019-04-03T17:38:52.820Z,60.00
2019-04-03T17:39:52.559Z,60.00
2019-04-03T17:40:52.356Z,56.00
2019-04-03T17:41:52.346Z,56.00
2019-04-03T17:42:52.346Z,56.00
2019-04-03T17:43:52.326Z,56.00
2019-04-03T17:44:52.345Z,56.00
2019-04-03T17:45:52.307Z,56.00
2019-04-03T17:46:52.286Z,60.00
2019-04-03T17:47:53.889Z,60.00
2019-04-03T17:48:53.731Z,60.00
2019-04-03T17:49:52.266Z,60.00
2019-04-03T17:50:52.247Z,60.00
2019-04-03T17:51:52.248Z,60.00
2019-04-03T17:52:52.227Z,60.00
2019-04-03T17:53:52.218Z,60.00
2019-04-03T17:54:52.216Z,60.00
2019-04-03T17:55:52.195Z,60.00
2019-04-03T17:56:52.198Z,56.00
2019-04-03T17:57:52.190Z,56.00
2019-04-03T17:58:52.158Z,56.00
2019-04-03T17:59:52.158Z,60.00
2019-04-03T18:00:52.656Z,60.00
2019-04-03T18:01:52.500Z,60.00
2019-04-03T18:02:52.118Z,60.00
2019-04-03T18:03:52.108Z,60.00
2019-04-03T18:04:52.098Z,60.00
2019-04-03T18:05:52.087Z,60.00
2019-04-03T18:06:52.079Z,56.00
2019-04-03T18:07:52.079Z,60.00
2019-04-03T18:08:52.049Z,56.00
2019-04-03T18:09:52.059Z,60.00
2019-04-03T18:10:52.029Z,60.00
2019-04-03T18:11:52.022Z,56.00
2019-04-03T18:12:52.345Z,56.00
2019-04-03T18:13:52.980Z,56.00
2019-04-03T18:14:51.991Z,60.00
2019-04-03T18:15:51.995Z,60.00
2019-04-03T18:16:51.980Z,60.00
2019-04-03T18:17:51.951Z,56.00
2019-04-03T18:18:51.941Z,60.00
2019-04-03T18:19:51.931Z,60.00
2019-04-03T18:20:51.932Z,56.00
2019-04-03T18:21:51.915Z,56.00
2019-04-03T18:22:51.901Z,60.00
2019-04-03T18:23:53.392Z,48.00
2019-04-03T18:24:53.876Z,48.00
2019-04-03T18:25:51.872Z,52.00
2019-04-03T18:26:51.861Z,48.00
2019-04-03T18:27:51.852Z,52.00
2019-04-03T18:28:51.832Z,48.00
2019-04-03T18:29:51.830Z,48.00
2019-04-03T18:30:51.822Z,48.00
2019-04-03T18:31:51.803Z,40.00
2019-04-03T18:32:51.793Z,40.00
2019-04-03T18:33:51.784Z,40.00
2019-04-03T18:34:54.820Z,40.00
2019-04-03T18:35:51.765Z,40.00
2019-04-03T18:36:51.751Z,40.00
2019-04-03T18:37:51.733Z,48.00
2019-04-03T18:38:51.727Z,48.00
2019-04-03T18:39:51.713Z,52.00
2019-04-03T18:40:51.716Z,52.00
2019-04-03T18:41:51.694Z,48.00
2019-04-03T18:42:51.703Z,52.00
2019-04-03T18:43:54.144Z,52.00
2019-04-03T18:44:51.669Z,48.00
2019-04-03T18:45:51.664Z,48.00
2019-04-03T18:46:51.636Z,48.00
2019-04-03T18:47:51.635Z,48.00
2019-04-03T18:48:53.880Z,52.00
2019-04-03T18:49:51.653Z,52.00
2019-04-03T18:50:51.634Z,52.00
2019-04-03T18:51:51.585Z,52.00
2019-04-03T18:52:51.575Z,52.00
2019-04-03T18:53:51.565Z,52.00
2019-04-03T18:54:51.555Z,52.00
2019-04-03T18:55:51.558Z,52.00
2019-04-03T18:56:51.536Z,52.00
2019-04-03T18:57:51.526Z,52.00
2019-04-03T18:58:53.082Z,52.00
2019-04-03T18:59:51.497Z,52.00
2019-04-03T19:00:51.504Z,52.00
2019-04-03T19:01:51.488Z,52.00
2019-04-03T19:02:51.466Z,52.00
2019-04-03T19:03:51.456Z,52.00
2019-04-03T19:05:01.251Z,52.00
2019-04-03T19:05:52.437Z,52.00
2019-04-03T19:06:51.434Z,52.00
2019-04-03T19:07:51.428Z,52.00
2019-04-03T19:08:51.406Z,48.00
2019-04-03T19:09:51.795Z,52.00
2019-04-03T19:11:01.621Z,52.00
2019-04-03T19:11:52.378Z,52.00
2019-04-03T19:12:51.368Z,52.00
2019-04-03T19:13:51.358Z,52.00
2019-04-03T19:14:51.341Z,52.00
2019-04-03T19:15:51.329Z,52.00
2019-04-03T19:16:52.419Z,52.00
2019-04-03T19:17:59.859Z,52.00
2019-04-03T19:18:52.288Z,52.00
2019-04-03T19:19:51.289Z,52.00
2019-04-03T19:20:51.269Z,52.00
2019-04-03T19:21:52.824Z,52.00
2019-04-03T19:23:02.085Z,52.00
2019-04-03T19:23:54.260Z,52.00
2019-04-03T19:24:51.233Z,52.00
2019-04-03T19:25:51.222Z,52.00
2019-04-03T19:26:51.208Z,52.00
2019-04-03T19:27:51.200Z,52.00
2019-04-03T19:28:51.199Z,52.00
2019-04-03T19:29:51.169Z,52.00
2019-04-03T19:30:51.160Z,52.00
2019-04-03T19:31:51.173Z,52.00
2019-04-03T19:32:51.149Z,16.00
2019-04-03T19:33:51.160Z,0.00
2019-04-03T19:34:52.413Z,0.00
2019-04-03T19:35:51.111Z,0.00
2019-04-03T19:36:51.106Z,0.00
2019-04-03T19:37:51.093Z,0.00
2019-04-03T19:38:53.399Z,0.00
2019-04-03T19:39:51.061Z,0.00
2019-04-03T19:40:51.052Z,0.00
2019-04-03T19:41:51.072Z,0.00
2019-04-03T19:42:51.032Z,0.00
2019-04-03T19:43:51.053Z,0.00
2019-04-03T19:44:51.012Z,0.00
2019-04-03T19:45:51.711Z,0.00
2019-04-03T19:46:51.987Z,0.00
2019-04-03T19:47:51.047Z,0.00
2019-04-03T19:48:50.973Z,0.00
2019-04-03T19:49:50.964Z,0.00
2019-04-03T19:50:50.949Z,0.00
2019-04-03T19:51:50.933Z,0.00
2019-04-03T19:52:50.933Z,0.00
2019-04-03T19:53:59.301Z,0.00
2019-04-03T19:54:52.050Z,0.00
2019-04-03T19:55:50.903Z,0.00
2019-04-03T19:56:50.884Z,0.00
2019-04-03T19:57:50.875Z,0.00
2019-04-03T19:58:50.874Z,0.00
2019-04-03T19:59:50.852Z,0.00
2019-04-03T20:00:50.844Z,0.00
2019-04-03T20:01:50.849Z,0.00
2019-04-03T20:02:50.825Z,0.00
2019-04-03T20:03:50.815Z,0.00
2019-04-03T20:04:50.795Z,0.00
2019-04-03T20:05:50.998Z,0.00
2019-04-03T20:06:50.775Z,0.00
2019-04-03T20:07:50.776Z,0.00
2019-04-03T20:08:50.767Z,0.00
2019-04-03T20:09:50.745Z,0.00
2019-04-03T20:10:50.740Z,0.00
2019-04-03T20:11:53.177Z,0.00
2019-04-03T20:12:50.731Z,0.00
2019-04-03T20:13:50.705Z,0.00
2019-04-03T20:14:58.157Z,0.00
2019-04-03T20:15:53.830Z,0.00
2019-04-03T20:16:50.665Z,0.00
2019-04-03T20:17:50.679Z,0.00
2019-04-03T20:18:50.646Z,0.00
2019-04-03T20:19:50.648Z,0.00
2019-04-03T20:20:50.629Z,0.00
2019-04-03T20:21:50.620Z,0.00
2019-04-03T20:22:50.597Z,0.00
2019-04-03T20:23:50.597Z,0.00
2019-04-03T20:24:59.978Z,0.00
2019-04-03T20:25:51.599Z,0.00
2019-04-03T20:26:50.557Z,0.00
2019-04-03T20:27:52.123Z,0.00
2019-04-03T20:28:50.547Z,0.00
2019-04-03T20:29:50.528Z,0.00
2019-04-03T20:30:50.518Z,0.00
2019-04-03T20:31:50.510Z,0.00
2019-04-03T20:32:50.499Z,0.00
2019-04-03T20:33:50.490Z,0.00
2019-04-03T20:34:50.469Z,0.00
2019-04-03T20:35:50.478Z,0.00
2019-04-03T20:36:54.083Z,0.00
2019-04-03T20:37:50.448Z,0.00
2019-04-03T20:38:50.429Z,0.00
2019-04-03T20:39:50.419Z,0.00
2019-04-03T20:40:50.419Z,0.00
2019-04-03T20:41:50.399Z,0.00
2019-04-03T20:42:50.380Z,0.00
2019-04-03T20:43:50.394Z,0.00
2019-04-03T20:44:50.368Z,0.00
2019-04-03T20:45:50.409Z,0.00
2019-04-03T20:46:50.341Z,0.00
2019-04-03T20:47:50.330Z,0.00
2019-04-03T20:48:50.330Z,0.00
2019-04-03T20:49:50.326Z,0.00
2019-04-03T20:50:50.300Z,0.00
2019-04-03T20:51:50.289Z,0.00
2019-04-03T20:52:50.274Z,0.00
2019-04-03T20:53:50.856Z,0.00
2019-04-03T20:54:52.847Z,0.00
2019-04-03T20:55:50.255Z,0.00
2019-04-03T20:56:57.688Z,0.00
2019-04-03T20:57:55.758Z,0.00
2019-04-03T20:58:56.147Z,0.00
2019-04-03T21:00:01.817Z,0.00
2019-04-03T21:01:05.782Z,0.00
2019-04-03T21:01:51.182Z,0.00
2019-04-03T21:02:50.162Z,0.00
2019-04-03T21:03:50.161Z,0.00
2019-04-03T21:04:50.153Z,0.00
2019-04-03T21:05:50.140Z,0.00
2019-04-03T21:06:51.655Z,0.00
2019-04-03T21:07:50.115Z,0.00
2019-04-03T21:08:50.104Z,0.00
2019-04-03T21:09:50.103Z,0.00
2019-04-03T21:10:50.083Z,0.00
2019-04-03T21:11:50.073Z,0.00
2019-04-03T21:12:50.054Z,0.00
2019-04-03T21:13:50.053Z,0.00
2019-04-03T21:14:50.044Z,0.00
2019-04-03T21:15:52.168Z,0.00
2019-04-03T21:16:50.014Z,0.00
2019-04-03T21:17:50.560Z,0.00
2019-04-03T21:18:51.469Z,0.00
2019-04-03T21:19:52.182Z,0.00
2019-04-03T21:20:49.977Z,0.00
2019-04-03T21:21:49.963Z,0.00
2019-04-03T21:22:49.966Z,0.00
2019-04-03T21:23:49.943Z,0.00
2019-04-03T21:24:49.936Z,0.00
2019-04-03T21:25:49.927Z,0.00
2019-04-03T21:26:49.905Z,0.00
2019-04-03T21:27:49.905Z,0.00
2019-04-03T21:28:49.886Z,0.00
2019-04-03T21:29:50.081Z,0.00
2019-04-03T21:30:49.866Z,0.00
2019-04-03T21:31:49.862Z,0.00
2019-04-03T21:32:49.846Z,0.00
2019-04-03T21:33:49.834Z,0.00
2019-04-03T21:34:49.825Z,0.00
2019-04-03T21:35:49.837Z,0.00
2019-04-03T21:36:49.797Z,0.00
2019-04-03T21:37:49.790Z,0.00
2019-04-03T21:38:49.789Z,0.00
2019-04-03T21:39:49.774Z,0.00
2019-04-03T21:40:49.767Z,0.00
2019-04-03T21:41:49.745Z,0.00
2019-04-03T21:42:49.737Z,0.00
2019-04-03T21:43:49.726Z,0.00
2019-04-03T21:44:49.730Z,0.00
2019-04-03T21:45:49.708Z,0.00
2019-04-03T21:46:49.688Z,0.00
2019-04-03T21:47:49.679Z,0.00
2019-04-03T21:48:49.668Z,0.00
2019-04-03T21:49:49.668Z,0.00
2019-04-03T21:50:50.353Z,0.00
2019-04-03T21:51:49.916Z,0.00
2019-04-03T21:52:49.628Z,0.00
2019-04-03T21:53:49.610Z,0.00
2019-04-03T21:54:49.599Z,0.00
2019-04-03T21:55:49.589Z,0.00
2019-04-03T21:56:49.591Z,0.00
2019-04-03T21:57:49.569Z,0.00
2019-04-03T21:58:49.563Z,0.00
2019-04-03T21:59:49.549Z,0.00
2019-04-03T22:00:49.540Z,0.00
2019-04-03T22:01:49.530Z,0.00
2019-04-03T22:02:49.985Z,0.00
2019-04-03T22:03:51.454Z,0.00
2019-04-03T22:04:49.500Z,0.00
2019-04-03T22:05:49.480Z,0.00
2019-04-03T22:06:49.470Z,0.00
2019-04-03T22:07:49.460Z,0.00
2019-04-03T22:08:51.553Z,0.00
2019-04-03T22:09:49.440Z,0.00
2019-04-03T22:10:50.592Z,0.00
2019-04-03T22:11:49.430Z,0.00
2019-04-03T22:12:49.412Z,0.00
2019-04-03T22:13:49.399Z,0.00
2019-04-03T22:14:49.394Z,0.00
2019-04-03T22:15:49.382Z,0.00
2019-04-03T22:16:50.740Z,0.00
2019-04-03T22:17:52.371Z,0.00
2019-04-03T22:18:49.345Z,0.00
2019-04-03T22:19:49.332Z,0.00
2019-04-03T22:20:49.326Z,0.00
2019-04-03T22:21:49.312Z,0.00
2019-04-03T22:22:49.302Z,0.00
2019-04-03T22:23:49.306Z,0.00
2019-04-03T22:24:49.274Z,0.00
2019-04-03T22:25:49.262Z,0.00
2019-04-03T22:26:49.274Z,0.00
2019-04-03T22:27:49.302Z,0.00
2019-04-03T22:28:49.234Z,0.00
2019-04-03T22:29:50.910Z,0.00
2019-04-03T22:30:52.270Z,0.00
2019-04-03T22:31:49.203Z,0.00
2019-04-03T22:32:49.204Z,0.00
2019-04-03T22:33:49.197Z,0.00
2019-04-03T22:34:49.164Z,0.00
2019-04-03T22:35:49.154Z,0.00
2019-04-03T22:36:49.164Z,0.00
2019-04-03T22:37:49.144Z,0.00
2019-04-03T22:38:49.127Z,0.00
2019-04-03T22:39:49.115Z,0.00
2019-04-03T22:40:49.106Z,0.00
2019-04-03T22:41:49.094Z,0.00
2019-04-03T22:42:49.085Z,0.00
2019-04-03T22:43:49.075Z,0.00
2019-04-03T22:44:49.067Z,0.00
2019-04-03T22:45:50.700Z,0.00
2019-04-03T22:46:49.035Z,0.00
2019-04-03T22:47:49.035Z,0.00
2019-04-03T22:48:49.018Z,0.00
2019-04-03T22:49:49.006Z,0.00
2019-04-03T22:50:48.997Z,0.00
2019-04-03T22:51:48.986Z,0.00
2019-04-03T22:52:48.978Z,0.00
2019-04-03T22:53:48.966Z,0.00
2019-04-03T22:54:48.949Z,0.00
2019-04-03T22:55:48.941Z,0.00
2019-04-03T22:56:48.946Z,0.00
2019-04-03T22:57:50.398Z,0.00
2019-04-03T22:58:48.917Z,0.00
2019-04-03T22:59:48.906Z,0.00
2019-04-03T23:00:48.898Z,0.00
2019-04-03T23:01:48.877Z,0.00
2019-04-03T23:02:48.868Z,0.00
2019-04-03T23:03:49.322Z,0.00
2019-04-03T23:04:48.838Z,0.00
2019-04-03T23:05:48.828Z,0.00
2019-04-03T23:06:49.667Z,0.00
2019-04-03T23:07:51.666Z,0.00
2019-04-03T23:08:48.806Z,0.00
2019-04-03T23:09:48.790Z,0.00
2019-04-03T23:10:48.779Z,0.00
2019-04-03T23:11:48.769Z,0.00
2019-04-03T23:12:48.759Z,0.00
2019-04-03T23:13:48.762Z,0.00
2019-04-03T23:14:48.759Z,0.00
2019-04-03T23:15:48.719Z,0.00
2019-04-03T23:16:48.710Z,0.00
2019-04-03T23:17:48.699Z,0.00
2019-04-03T23:18:48.690Z,0.00
2019-04-03T23:19:49.873Z,0.00
2019-04-03T23:20:48.668Z,0.00
2019-04-03T23:21:48.731Z,0.00
2019-04-03T23:22:48.643Z,0.00
2019-04-03T23:23:48.640Z,0.00
2019-04-03T23:24:48.620Z,0.00
2019-04-03T23:25:48.613Z,0.00
2019-04-03T23:26:48.600Z,0.00
2019-04-03T23:27:48.591Z,0.00
2019-04-03T23:28:48.581Z,0.00
2019-04-03T23:29:48.570Z,0.00
